sensor_id;sensor_type;location;lat;lon;timestamp;temperature;humidity
1379;DHT22;683;48.738;9.226;2022-07-06T00:00:35;17.60;68.70
1379;DHT22;683;48.738;9.226;2022-07-06T00:03:02;17.60;69.00
1379;DHT22;683;48.738;9.226;2022-07-06T00:05:30;17.50;69.20
1379;DHT22;683;48.738;9.226;2022-07-06T00:07:57;17.40;69.50
1379;DHT22;683;48.738;9.226;2022-07-06T00:10:24;17.40;69.60
1379;DHT22;683;48.738;9.226;2022-07-06T00:12:52;17.40;69.70
1379;DHT22;683;48.738;9.226;2022-07-06T00:15:19;17.30;70.10
1379;DHT22;683;48.738;9.226;2022-07-06T00:17:50;17.20;70.40
1379;DHT22;683;48.738;9.226;2022-07-06T00:20:18;17.20;70.30
1379;DHT22;683;48.738;9.226;2022-07-06T00:22:45;17.20;70.80
1379;DHT22;683;48.738;9.226;2022-07-06T00:25:12;17.20;71.30
1379;DHT22;683;48.738;9.226;2022-07-06T00:27:40;17.10;71.30
1379;DHT22;683;48.738;9.226;2022-07-06T00:30:08;17.10;71.60
1379;DHT22;683;48.738;9.226;2022-07-06T00:32:35;17.10;71.70
1379;DHT22;683;48.738;9.226;2022-07-06T00:35:05;17.00;71.90
1379;DHT22;683;48.738;9.226;2022-07-06T00:37:33;17.00;72.50
1379;DHT22;683;48.738;9.226;2022-07-06T00:40:00;16.90;72.40
1379;DHT22;683;48.738;9.226;2022-07-06T00:42:27;16.90;72.60
1379;DHT22;683;48.738;9.226;2022-07-06T00:44:54;17.00;72.60
1379;DHT22;683;48.738;9.226;2022-07-06T00:47:22;16.90;73.20
1379;DHT22;683;48.738;9.226;2022-07-06T00:49:49;16.80;72.90
1379;DHT22;683;48.738;9.226;2022-07-06T00:52:35;16.80;73.70
1379;DHT22;683;48.738;9.226;2022-07-06T00:55:03;16.90;73.30
1379;DHT22;683;48.738;9.226;2022-07-06T00:57:31;16.90;73.10
1379;DHT22;683;48.738;9.226;2022-07-06T00:59:59;16.80;73.30
1379;DHT22;683;48.738;9.226;2022-07-06T01:02:27;16.80;73.50
1379;DHT22;683;48.738;9.226;2022-07-06T01:04:57;16.80;73.80
1379;DHT22;683;48.738;9.226;2022-07-06T01:07:24;16.70;74.00
1379;DHT22;683;48.738;9.226;2022-07-06T01:09:53;16.70;74.60
1379;DHT22;683;48.738;9.226;2022-07-06T01:12:22;16.70;74.50
1379;DHT22;683;48.738;9.226;2022-07-06T01:14:50;16.70;74.60
1379;DHT22;683;48.738;9.226;2022-07-06T01:17:18;16.70;74.90
1379;DHT22;683;48.738;9.226;2022-07-06T01:19:46;16.60;75.50
1379;DHT22;683;48.738;9.226;2022-07-06T01:22:14;16.60;75.20
1379;DHT22;683;48.738;9.226;2022-07-06T01:24:42;16.50;75.40
1379;DHT22;683;48.738;9.226;2022-07-06T01:27:09;16.50;75.30
1379;DHT22;683;48.738;9.226;2022-07-06T01:29:37;16.50;74.90
1379;DHT22;683;48.738;9.226;2022-07-06T01:32:05;16.50;75.20
1379;DHT22;683;48.738;9.226;2022-07-06T01:34:32;16.50;75.10
1379;DHT22;683;48.738;9.226;2022-07-06T01:37:00;16.50;74.80
1379;DHT22;683;48.738;9.226;2022-07-06T01:39:28;16.50;74.80
1379;DHT22;683;48.738;9.226;2022-07-06T01:41:56;16.50;75.60
1379;DHT22;683;48.738;9.226;2022-07-06T01:44:23;16.50;74.90
1379;DHT22;683;48.738;9.226;2022-07-06T01:46:51;16.50;75.90
1379;DHT22;683;48.738;9.226;2022-07-06T01:49:18;16.30;75.60
1379;DHT22;683;48.738;9.226;2022-07-06T01:51:46;16.30;75.90
1379;DHT22;683;48.738;9.226;2022-07-06T01:54:13;16.20;76.00
1379;DHT22;683;48.738;9.226;2022-07-06T01:56:43;16.10;76.40
1379;DHT22;683;48.738;9.226;2022-07-06T01:59:10;16.00;76.70
1379;DHT22;683;48.738;9.226;2022-07-06T02:01:38;16.00;77.20
1379;DHT22;683;48.738;9.226;2022-07-06T02:04:05;16.00;76.60
1379;DHT22;683;48.738;9.226;2022-07-06T02:06:33;16.00;76.50
1379;DHT22;683;48.738;9.226;2022-07-06T02:09:00;16.00;77.00
1379;DHT22;683;48.738;9.226;2022-07-06T02:11:28;16.00;77.10
1379;DHT22;683;48.738;9.226;2022-07-06T02:13:56;15.90;77.20
1379;DHT22;683;48.738;9.226;2022-07-06T02:16:25;15.90;77.50
1379;DHT22;683;48.738;9.226;2022-07-06T02:18:53;15.80;77.20
1379;DHT22;683;48.738;9.226;2022-07-06T02:21:20;15.70;77.90
1379;DHT22;683;48.738;9.226;2022-07-06T02:23:48;15.70;78.80
1379;DHT22;683;48.738;9.226;2022-07-06T02:26:18;15.60;78.50
1379;DHT22;683;48.738;9.226;2022-07-06T02:28:45;15.60;78.90
1379;DHT22;683;48.738;9.226;2022-07-06T02:31:15;15.50;78.80
1379;DHT22;683;48.738;9.226;2022-07-06T02:33:45;15.50;79.20
1379;DHT22;683;48.738;9.226;2022-07-06T02:36:13;15.50;79.40
1379;DHT22;683;48.738;9.226;2022-07-06T02:38:42;15.40;80.30
1379;DHT22;683;48.738;9.226;2022-07-06T02:41:10;15.40;80.10
1379;DHT22;683;48.738;9.226;2022-07-06T02:43:38;15.40;80.10
1379;DHT22;683;48.738;9.226;2022-07-06T02:46:05;15.30;80.00
1379;DHT22;683;48.738;9.226;2022-07-06T02:48:35;15.40;80.30
1379;DHT22;683;48.738;9.226;2022-07-06T02:51:04;15.40;80.70
1379;DHT22;683;48.738;9.226;2022-07-06T02:53:31;15.40;80.80
1379;DHT22;683;48.738;9.226;2022-07-06T02:56:00;15.30;81.10
1379;DHT22;683;48.738;9.226;2022-07-06T02:58:29;15.30;81.30
1379;DHT22;683;48.738;9.226;2022-07-06T03:00:56;15.30;81.40
1379;DHT22;683;48.738;9.226;2022-07-06T03:03:23;15.30;81.70
1379;DHT22;683;48.738;9.226;2022-07-06T03:05:52;15.20;82.10
1379;DHT22;683;48.738;9.226;2022-07-06T03:08:20;15.20;82.80
1379;DHT22;683;48.738;9.226;2022-07-06T03:10:48;15.10;83.00
1379;DHT22;683;48.738;9.226;2022-07-06T03:13:16;15.10;83.50
1379;DHT22;683;48.738;9.226;2022-07-06T03:15:45;15.10;83.50
1379;DHT22;683;48.738;9.226;2022-07-06T03:18:12;15.00;83.60
1379;DHT22;683;48.738;9.226;2022-07-06T03:20:39;15.00;83.80
1379;DHT22;683;48.738;9.226;2022-07-06T03:23:11;15.00;84.20
1379;DHT22;683;48.738;9.226;2022-07-06T03:25:38;14.90;84.70
1379;DHT22;683;48.738;9.226;2022-07-06T03:28:06;14.90;85.40
1379;DHT22;683;48.738;9.226;2022-07-06T03:30:34;14.80;85.50
1379;DHT22;683;48.738;9.226;2022-07-06T03:33:01;14.80;85.90
1379;DHT22;683;48.738;9.226;2022-07-06T03:35:29;14.80;85.80
1379;DHT22;683;48.738;9.226;2022-07-06T03:37:57;14.90;86.00
1379;DHT22;683;48.738;9.226;2022-07-06T03:40:29;14.90;86.10
1379;DHT22;683;48.738;9.226;2022-07-06T03:42:57;14.90;86.40
1379;DHT22;683;48.738;9.226;2022-07-06T03:45:26;14.90;87.00
1379;DHT22;683;48.738;9.226;2022-07-06T03:47:54;14.90;87.00
1379;DHT22;683;48.738;9.226;2022-07-06T03:50:21;14.80;86.70
1379;DHT22;683;48.738;9.226;2022-07-06T03:52:49;14.80;86.70
1379;DHT22;683;48.738;9.226;2022-07-06T03:55:17;14.80;87.50
1379;DHT22;683;48.738;9.226;2022-07-06T03:57:51;14.80;87.60
1379;DHT22;683;48.738;9.226;2022-07-06T04:00:22;14.90;87.50
1379;DHT22;683;48.738;9.226;2022-07-06T04:02:57;14.90;87.70
1379;DHT22;683;48.738;9.226;2022-07-06T04:05:29;14.80;87.60
1379;DHT22;683;48.738;9.226;2022-07-06T04:07:57;14.80;88.00
1379;DHT22;683;48.738;9.226;2022-07-06T04:10:32;14.80;88.10
1379;DHT22;683;48.738;9.226;2022-07-06T04:13:02;14.90;88.40
1379;DHT22;683;48.738;9.226;2022-07-06T04:15:30;14.90;88.50
1379;DHT22;683;48.738;9.226;2022-07-06T04:17:59;15.00;88.20
1379;DHT22;683;48.738;9.226;2022-07-06T04:20:31;15.00;88.90
1379;DHT22;683;48.738;9.226;2022-07-06T04:22:59;15.10;88.30
1379;DHT22;683;48.738;9.226;2022-07-06T04:25:27;15.10;88.30
1379;DHT22;683;48.738;9.226;2022-07-06T04:27:57;15.10;88.60
1379;DHT22;683;48.738;9.226;2022-07-06T04:30:28;15.20;88.80
1379;DHT22;683;48.738;9.226;2022-07-06T04:32:56;15.20;89.50
1379;DHT22;683;48.738;9.226;2022-07-06T04:35:26;15.20;89.60
1379;DHT22;683;48.738;9.226;2022-07-06T04:37:54;15.20;89.40
1379;DHT22;683;48.738;9.226;2022-07-06T04:40:22;15.30;90.00
1379;DHT22;683;48.738;9.226;2022-07-06T04:42:54;15.40;89.60
1379;DHT22;683;48.738;9.226;2022-07-06T04:45:23;15.40;89.60
1379;DHT22;683;48.738;9.226;2022-07-06T04:47:52;15.40;89.80
1379;DHT22;683;48.738;9.226;2022-07-06T04:50:20;15.50;89.80
1379;DHT22;683;48.738;9.226;2022-07-06T04:52:49;15.50;89.40
1379;DHT22;683;48.738;9.226;2022-07-06T04:55:17;15.60;90.00
1379;DHT22;683;48.738;9.226;2022-07-06T04:57:46;15.70;89.60
1379;DHT22;683;48.738;9.226;2022-07-06T05:00:15;15.80;89.50
1379;DHT22;683;48.738;9.226;2022-07-06T05:02:42;15.90;89.40
1379;DHT22;683;48.738;9.226;2022-07-06T05:05:12;15.90;89.30
1379;DHT22;683;48.738;9.226;2022-07-06T05:07:39;15.90;89.90
1379;DHT22;683;48.738;9.226;2022-07-06T05:10:08;16.00;89.80
1379;DHT22;683;48.738;9.226;2022-07-06T05:12:38;16.00;89.70
1379;DHT22;683;48.738;9.226;2022-07-06T05:15:07;16.00;90.00
1379;DHT22;683;48.738;9.226;2022-07-06T05:17:35;16.10;90.10
1379;DHT22;683;48.738;9.226;2022-07-06T05:20:05;16.10;89.00
1379;DHT22;683;48.738;9.226;2022-07-06T05:22:38;16.10;88.80
1379;DHT22;683;48.738;9.226;2022-07-06T05:25:06;16.20;89.20
1379;DHT22;683;48.738;9.226;2022-07-06T05:27:33;16.20;89.10
1379;DHT22;683;48.738;9.226;2022-07-06T05:30:00;16.30;89.10
1379;DHT22;683;48.738;9.226;2022-07-06T05:32:29;16.40;90.00
1379;DHT22;683;48.738;9.226;2022-07-06T05:34:57;16.40;88.60
1379;DHT22;683;48.738;9.226;2022-07-06T05:37:26;16.50;89.80
1379;DHT22;683;48.738;9.226;2022-07-06T05:39:56;16.60;88.30
1379;DHT22;683;48.738;9.226;2022-07-06T05:42:24;16.70;88.50
1379;DHT22;683;48.738;9.226;2022-07-06T05:44:55;16.80;88.50
1379;DHT22;683;48.738;9.226;2022-07-06T05:47:27;16.80;89.00
1379;DHT22;683;48.738;9.226;2022-07-06T05:50:12;16.80;88.40
1379;DHT22;683;48.738;9.226;2022-07-06T05:52:55;16.70;88.70
1379;DHT22;683;48.738;9.226;2022-07-06T05:55:25;16.80;88.30
1379;DHT22;683;48.738;9.226;2022-07-06T05:57:54;16.90;88.30
1379;DHT22;683;48.738;9.226;2022-07-06T06:00:25;17.00;88.00
1379;DHT22;683;48.738;9.226;2022-07-06T06:02:56;16.90;87.70
1379;DHT22;683;48.738;9.226;2022-07-06T06:05:25;17.10;88.00
1379;DHT22;683;48.738;9.226;2022-07-06T06:07:57;17.10;86.60
1379;DHT22;683;48.738;9.226;2022-07-06T06:10:27;17.10;86.50
1379;DHT22;683;48.738;9.226;2022-07-06T06:12:58;17.20;86.40
1379;DHT22;683;48.738;9.226;2022-07-06T06:15:26;17.30;86.80
1379;DHT22;683;48.738;9.226;2022-07-06T06:17:54;17.30;85.10
1379;DHT22;683;48.738;9.226;2022-07-06T06:20:21;17.50;86.20
1379;DHT22;683;48.738;9.226;2022-07-06T06:22:49;17.70;85.10
1379;DHT22;683;48.738;9.226;2022-07-06T06:25:18;18.10;85.20
1379;DHT22;683;48.738;9.226;2022-07-06T06:27:48;18.50;83.40
1379;DHT22;683;48.738;9.226;2022-07-06T06:30:15;18.80;82.50
1379;DHT22;683;48.738;9.226;2022-07-06T06:32:43;18.70;81.50
1379;DHT22;683;48.738;9.226;2022-07-06T06:35:13;18.60;82.10
1379;DHT22;683;48.738;9.226;2022-07-06T06:37:40;18.60;82.60
1379;DHT22;683;48.738;9.226;2022-07-06T06:40:08;18.60;81.80
1379;DHT22;683;48.738;9.226;2022-07-06T06:42:36;18.50;81.10
1379;DHT22;683;48.738;9.226;2022-07-06T06:45:10;19.00;80.70
1379;DHT22;683;48.738;9.226;2022-07-06T06:47:37;19.30;80.00
1379;DHT22;683;48.738;9.226;2022-07-06T06:50:05;19.60;79.60
1379;DHT22;683;48.738;9.226;2022-07-06T06:52:32;19.80;79.20
1379;DHT22;683;48.738;9.226;2022-07-06T06:55:00;19.90;78.40
1379;DHT22;683;48.738;9.226;2022-07-06T06:57:27;19.70;79.00
1379;DHT22;683;48.738;9.226;2022-07-06T06:59:56;19.80;78.30
1379;DHT22;683;48.738;9.226;2022-07-06T07:02:25;19.90;77.80
1379;DHT22;683;48.738;9.226;2022-07-06T07:04:52;19.60;78.30
1379;DHT22;683;48.738;9.226;2022-07-06T07:07:19;19.20;78.50
1379;DHT22;683;48.738;9.226;2022-07-06T07:09:47;18.90;80.50
1379;DHT22;683;48.738;9.226;2022-07-06T07:12:14;18.90;81.50
1379;DHT22;683;48.738;9.226;2022-07-06T07:14:43;18.90;80.60
1379;DHT22;683;48.738;9.226;2022-07-06T07:17:10;18.90;80.90
1379;DHT22;683;48.738;9.226;2022-07-06T07:19:42;19.00;80.10
1379;DHT22;683;48.738;9.226;2022-07-06T07:22:09;19.10;80.60
1379;DHT22;683;48.738;9.226;2022-07-06T07:24:36;19.10;79.60
1379;DHT22;683;48.738;9.226;2022-07-06T07:27:04;19.10;79.20
1379;DHT22;683;48.738;9.226;2022-07-06T07:29:34;19.00;80.40
1379;DHT22;683;48.738;9.226;2022-07-06T07:32:02;18.80;79.40
1379;DHT22;683;48.738;9.226;2022-07-06T07:34:29;19.10;81.30
1379;DHT22;683;48.738;9.226;2022-07-06T07:36:58;19.20;80.10
1379;DHT22;683;48.738;9.226;2022-07-06T07:39:25;19.30;79.20
1379;DHT22;683;48.738;9.226;2022-07-06T07:41:52;19.30;79.20
1379;DHT22;683;48.738;9.226;2022-07-06T07:44:20;19.40;78.10
1379;DHT22;683;48.738;9.226;2022-07-06T07:46:47;19.40;78.80
1379;DHT22;683;48.738;9.226;2022-07-06T07:49:14;19.40;78.90
1379;DHT22;683;48.738;9.226;2022-07-06T07:51:42;19.60;79.60
1379;DHT22;683;48.738;9.226;2022-07-06T07:54:10;19.80;77.40
1379;DHT22;683;48.738;9.226;2022-07-06T07:56:38;19.80;77.70
1379;DHT22;683;48.738;9.226;2022-07-06T07:59:06;20.10;78.40
1379;DHT22;683;48.738;9.226;2022-07-06T08:01:35;20.30;77.80
1379;DHT22;683;48.738;9.226;2022-07-06T08:04:03;20.20;76.80
1379;DHT22;683;48.738;9.226;2022-07-06T08:06:30;20.10;76.50
1379;DHT22;683;48.738;9.226;2022-07-06T08:08:58;20.10;77.10
1379;DHT22;683;48.738;9.226;2022-07-06T08:11:27;20.20;75.80
1379;DHT22;683;48.738;9.226;2022-07-06T08:13:55;20.20;75.70
1379;DHT22;683;48.738;9.226;2022-07-06T08:16:22;20.20;75.60
1379;DHT22;683;48.738;9.226;2022-07-06T08:18:50;20.30;76.00
1379;DHT22;683;48.738;9.226;2022-07-06T08:21:17;20.30;76.60
1379;DHT22;683;48.738;9.226;2022-07-06T08:23:44;20.30;75.00
1379;DHT22;683;48.738;9.226;2022-07-06T08:26:12;20.40;75.10
1379;DHT22;683;48.738;9.226;2022-07-06T08:28:41;20.40;75.40
1379;DHT22;683;48.738;9.226;2022-07-06T08:31:09;20.40;74.60
1379;DHT22;683;48.738;9.226;2022-07-06T08:33:36;20.60;76.20
1379;DHT22;683;48.738;9.226;2022-07-06T08:36:04;20.70;74.40
1379;DHT22;683;48.738;9.226;2022-07-06T08:38:32;20.70;75.80
1379;DHT22;683;48.738;9.226;2022-07-06T08:40:59;20.80;75.50
1379;DHT22;683;48.738;9.226;2022-07-06T08:43:27;20.90;74.00
1379;DHT22;683;48.738;9.226;2022-07-06T08:45:55;21.00;75.50
1379;DHT22;683;48.738;9.226;2022-07-06T08:48:23;21.00;74.10
1379;DHT22;683;48.738;9.226;2022-07-06T08:50:51;21.10;75.60
1379;DHT22;683;48.738;9.226;2022-07-06T08:53:20;21.00;74.10
1379;DHT22;683;48.738;9.226;2022-07-06T08:55:48;21.10;72.70
1379;DHT22;683;48.738;9.226;2022-07-06T08:58:16;21.00;73.70
1379;DHT22;683;48.738;9.226;2022-07-06T09:00:43;21.10;75.00
1379;DHT22;683;48.738;9.226;2022-07-06T09:03:13;21.00;74.10
1379;DHT22;683;48.738;9.226;2022-07-06T09:05:40;21.20;74.60
1379;DHT22;683;48.738;9.226;2022-07-06T09:08:10;21.30;73.90
1379;DHT22;683;48.738;9.226;2022-07-06T09:10:38;21.30;73.50
1379;DHT22;683;48.738;9.226;2022-07-06T09:13:06;21.20;73.90
1379;DHT22;683;48.738;9.226;2022-07-06T09:15:36;21.40;74.00
1379;DHT22;683;48.738;9.226;2022-07-06T09:18:05;21.50;73.80
1379;DHT22;683;48.738;9.226;2022-07-06T09:20:33;21.50;74.80
1379;DHT22;683;48.738;9.226;2022-07-06T09:23:03;21.60;74.10
1379;DHT22;683;48.738;9.226;2022-07-06T09:25:31;21.70;72.90
1379;DHT22;683;48.738;9.226;2022-07-06T09:27:59;21.60;72.60
1379;DHT22;683;48.738;9.226;2022-07-06T09:30:27;21.60;72.40
1379;DHT22;683;48.738;9.226;2022-07-06T09:32:56;21.60;73.70
1379;DHT22;683;48.738;9.226;2022-07-06T09:35:26;21.60;73.90
1379;DHT22;683;48.738;9.226;2022-07-06T09:38:02;21.90;73.00
1379;DHT22;683;48.738;9.226;2022-07-06T09:40:31;22.10;70.90
1379;DHT22;683;48.738;9.226;2022-07-06T09:43:09;22.10;71.30
1379;DHT22;683;48.738;9.226;2022-07-06T09:45:38;22.00;73.40
1379;DHT22;683;48.738;9.226;2022-07-06T09:48:07;22.00;70.30
1379;DHT22;683;48.738;9.226;2022-07-06T09:50:42;22.20;71.30
1379;DHT22;683;48.738;9.226;2022-07-06T09:53:12;22.50;69.90
1379;DHT22;683;48.738;9.226;2022-07-06T09:55:43;22.00;69.00
1379;DHT22;683;48.738;9.226;2022-07-06T09:58:11;21.90;69.00
1379;DHT22;683;48.738;9.226;2022-07-06T10:00:39;22.00;70.60
1379;DHT22;683;48.738;9.226;2022-07-06T10:03:07;22.10;71.30
1379;DHT22;683;48.738;9.226;2022-07-06T10:05:36;22.20;69.10
1379;DHT22;683;48.738;9.226;2022-07-06T10:08:06;22.20;71.00
1379;DHT22;683;48.738;9.226;2022-07-06T10:10:37;22.40;69.70
1379;DHT22;683;48.738;9.226;2022-07-06T10:13:05;22.40;70.10
1379;DHT22;683;48.738;9.226;2022-07-06T10:15:34;22.40;68.10
1379;DHT22;683;48.738;9.226;2022-07-06T10:18:04;22.00;66.70
1379;DHT22;683;48.738;9.226;2022-07-06T10:20:33;21.80;70.90
1379;DHT22;683;48.738;9.226;2022-07-06T10:23:03;21.80;69.00
1379;DHT22;683;48.738;9.226;2022-07-06T10:25:32;21.80;69.00
1379;DHT22;683;48.738;9.226;2022-07-06T10:28:01;21.80;68.00
1379;DHT22;683;48.738;9.226;2022-07-06T10:30:29;21.80;67.60
1379;DHT22;683;48.738;9.226;2022-07-06T10:32:58;21.80;67.50
1379;DHT22;683;48.738;9.226;2022-07-06T10:35:26;22.00;67.50
1379;DHT22;683;48.738;9.226;2022-07-06T10:38:04;22.20;69.00
1379;DHT22;683;48.738;9.226;2022-07-06T10:40:32;21.90;67.50
1379;DHT22;683;48.738;9.226;2022-07-06T10:43:18;22.30;71.00
1379;DHT22;683;48.738;9.226;2022-07-06T10:45:52;22.30;66.90
1379;DHT22;683;48.738;9.226;2022-07-06T10:48:22;22.10;70.60
1379;DHT22;683;48.738;9.226;2022-07-06T10:50:52;22.40;71.60
1379;DHT22;683;48.738;9.226;2022-07-06T10:53:24;22.70;68.70
1379;DHT22;683;48.738;9.226;2022-07-06T10:55:53;22.90;70.10
1379;DHT22;683;48.738;9.226;2022-07-06T10:58:37;23.20;69.70
1379;DHT22;683;48.738;9.226;2022-07-06T11:01:07;23.40;66.50
1379;DHT22;683;48.738;9.226;2022-07-06T11:03:37;23.40;66.60
1379;DHT22;683;48.738;9.226;2022-07-06T11:06:06;23.50;66.50
1379;DHT22;683;48.738;9.226;2022-07-06T11:08:52;23.40;67.60
1379;DHT22;683;48.738;9.226;2022-07-06T11:11:21;23.40;67.00
1379;DHT22;683;48.738;9.226;2022-07-06T11:13:52;23.50;65.60
1379;DHT22;683;48.738;9.226;2022-07-06T11:16:21;23.40;64.50
1379;DHT22;683;48.738;9.226;2022-07-06T11:18:58;23.60;67.40
1379;DHT22;683;48.738;9.226;2022-07-06T11:21:34;24.00;64.80
1379;DHT22;683;48.738;9.226;2022-07-06T11:24:03;23.70;65.40
1379;DHT22;683;48.738;9.226;2022-07-06T11:26:31;23.90;67.00
1379;DHT22;683;48.738;9.226;2022-07-06T11:29:01;23.80;65.10
1379;DHT22;683;48.738;9.226;2022-07-06T11:31:28;24.20;68.00
1379;DHT22;683;48.738;9.226;2022-07-06T11:33:55;24.70;66.00
1379;DHT22;683;48.738;9.226;2022-07-06T11:36:23;24.90;63.30
1379;DHT22;683;48.738;9.226;2022-07-06T11:38:50;24.50;62.10
1379;DHT22;683;48.738;9.226;2022-07-06T11:41:18;24.10;63.70
1379;DHT22;683;48.738;9.226;2022-07-06T11:43:47;23.80;64.50
1379;DHT22;683;48.738;9.226;2022-07-06T11:46:23;24.10;66.30
1379;DHT22;683;48.738;9.226;2022-07-06T11:48:52;24.50;65.40
1379;DHT22;683;48.738;9.226;2022-07-06T11:51:21;24.70;63.60
1379;DHT22;683;48.738;9.226;2022-07-06T11:53:51;24.90;63.40
1379;DHT22;683;48.738;9.226;2022-07-06T11:56:19;24.60;63.20
1379;DHT22;683;48.738;9.226;2022-07-06T11:58:49;24.70;63.80
1379;DHT22;683;48.738;9.226;2022-07-06T12:01:17;24.70;63.90
1379;DHT22;683;48.738;9.226;2022-07-06T12:03:46;24.80;63.00
1379;DHT22;683;48.738;9.226;2022-07-06T12:06:16;24.60;64.80
1379;DHT22;683;48.738;9.226;2022-07-06T12:08:45;25.00;63.00
1379;DHT22;683;48.738;9.226;2022-07-06T12:11:24;25.20;62.00
1379;DHT22;683;48.738;9.226;2022-07-06T12:13:52;26.10;61.70
1379;DHT22;683;48.738;9.226;2022-07-06T12:16:21;26.50;61.70
1379;DHT22;683;48.738;9.226;2022-07-06T12:18:51;27.60;58.90
1379;DHT22;683;48.738;9.226;2022-07-06T12:21:20;26.40;58.00
1379;DHT22;683;48.738;9.226;2022-07-06T12:23:49;25.80;59.50
1379;DHT22;683;48.738;9.226;2022-07-06T12:26:19;24.80;61.40
1379;DHT22;683;48.738;9.226;2022-07-06T12:28:54;24.70;61.60
1379;DHT22;683;48.738;9.226;2022-07-06T12:31:33;24.30;62.90
1379;DHT22;683;48.738;9.226;2022-07-06T12:34:02;24.20;63.50
1379;DHT22;683;48.738;9.226;2022-07-06T12:36:31;25.80;62.60
1379;DHT22;683;48.738;9.226;2022-07-06T12:38:58;26.70;59.80
1379;DHT22;683;48.738;9.226;2022-07-06T12:41:31;28.00;57.30
1379;DHT22;683;48.738;9.226;2022-07-06T12:44:07;29.10;55.40
1379;DHT22;683;48.738;9.226;2022-07-06T12:46:36;28.20;53.30
1379;DHT22;683;48.738;9.226;2022-07-06T12:49:13;26.40;56.10
1379;DHT22;683;48.738;9.226;2022-07-06T12:51:55;26.20;57.90
1379;DHT22;683;48.738;9.226;2022-07-06T12:54:24;26.90;58.20
1379;DHT22;683;48.738;9.226;2022-07-06T12:57:00;26.50;57.60
1379;DHT22;683;48.738;9.226;2022-07-06T12:59:28;26.80;58.60
1379;DHT22;683;48.738;9.226;2022-07-06T13:01:56;27.50;56.30
1379;DHT22;683;48.738;9.226;2022-07-06T13:04:27;28.80;54.20
1379;DHT22;683;48.738;9.226;2022-07-06T13:06:54;29.50;53.20
1379;DHT22;683;48.738;9.226;2022-07-06T13:09:22;29.20;51.20
1379;DHT22;683;48.738;9.226;2022-07-06T13:11:50;29.30;50.60
1379;DHT22;683;48.738;9.226;2022-07-06T13:14:19;29.80;50.10
1379;DHT22;683;48.738;9.226;2022-07-06T13:16:47;29.50;50.40
1379;DHT22;683;48.738;9.226;2022-07-06T13:19:15;29.00;51.70
1379;DHT22;683;48.738;9.226;2022-07-06T13:21:44;28.80;50.30
1379;DHT22;683;48.738;9.226;2022-07-06T13:24:11;29.20;50.00
1379;DHT22;683;48.738;9.226;2022-07-06T13:26:39;29.90;49.60
1379;DHT22;683;48.738;9.226;2022-07-06T13:29:07;29.60;49.10
1379;DHT22;683;48.738;9.226;2022-07-06T13:31:37;30.20;48.80
1379;DHT22;683;48.738;9.226;2022-07-06T13:34:05;30.30;48.60
1379;DHT22;683;48.738;9.226;2022-07-06T13:36:33;31.20;48.70
1379;DHT22;683;48.738;9.226;2022-07-06T13:39:02;30.90;45.40
1379;DHT22;683;48.738;9.226;2022-07-06T13:41:30;29.10;48.40
1379;DHT22;683;48.738;9.226;2022-07-06T13:43:57;27.20;51.80
1379;DHT22;683;48.738;9.226;2022-07-06T13:46:26;26.60;54.20
1379;DHT22;683;48.738;9.226;2022-07-06T13:48:54;26.50;54.40
1379;DHT22;683;48.738;9.226;2022-07-06T13:51:22;28.60;53.30
1379;DHT22;683;48.738;9.226;2022-07-06T13:53:50;30.50;49.40
1379;DHT22;683;48.738;9.226;2022-07-06T13:56:19;32.00;48.30
1379;DHT22;683;48.738;9.226;2022-07-06T13:58:47;33.00;43.90
1379;DHT22;683;48.738;9.226;2022-07-06T14:01:14;32.10;43.30
1379;DHT22;683;48.738;9.226;2022-07-06T14:03:42;31.90;45.20
1379;DHT22;683;48.738;9.226;2022-07-06T14:06:10;31.00;46.20
1379;DHT22;683;48.738;9.226;2022-07-06T14:08:38;31.40;45.30
1379;DHT22;683;48.738;9.226;2022-07-06T14:11:07;32.20;45.50
1379;DHT22;683;48.738;9.226;2022-07-06T14:13:36;31.60;43.80
1379;DHT22;683;48.738;9.226;2022-07-06T14:16:05;31.80;44.00
1379;DHT22;683;48.738;9.226;2022-07-06T14:18:33;32.10;42.80
1379;DHT22;683;48.738;9.226;2022-07-06T14:21:01;32.10;43.00
1379;DHT22;683;48.738;9.226;2022-07-06T14:23:30;32.10;44.00
1379;DHT22;683;48.738;9.226;2022-07-06T14:25:58;31.70;42.60
1379;DHT22;683;48.738;9.226;2022-07-06T14:28:25;32.20;43.10
1379;DHT22;683;48.738;9.226;2022-07-06T14:30:54;33.10;41.70
1379;DHT22;683;48.738;9.226;2022-07-06T14:33:22;33.10;41.50
1379;DHT22;683;48.738;9.226;2022-07-06T14:35:50;33.20;41.90
1379;DHT22;683;48.738;9.226;2022-07-06T14:38:19;33.30;41.10
1379;DHT22;683;48.738;9.226;2022-07-06T14:40:47;32.90;39.70
1379;DHT22;683;48.738;9.226;2022-07-06T14:43:15;33.70;39.70
1379;DHT22;683;48.738;9.226;2022-07-06T14:45:43;33.10;39.20
1379;DHT22;683;48.738;9.226;2022-07-06T14:48:13;33.50;41.30
1379;DHT22;683;48.738;9.226;2022-07-06T14:50:40;33.30;39.70
1379;DHT22;683;48.738;9.226;2022-07-06T14:53:07;33.50;39.30
1379;DHT22;683;48.738;9.226;2022-07-06T14:55:35;34.00;39.70
1379;DHT22;683;48.738;9.226;2022-07-06T14:58:02;34.60;38.50
1379;DHT22;683;48.738;9.226;2022-07-06T15:00:30;33.60;37.10
1379;DHT22;683;48.738;9.226;2022-07-06T15:02:57;32.60;39.70
1379;DHT22;683;48.738;9.226;2022-07-06T15:05:26;33.00;41.20
1379;DHT22;683;48.738;9.226;2022-07-06T15:07:53;32.70;38.20
1379;DHT22;683;48.738;9.226;2022-07-06T15:10:21;32.20;41.20
1379;DHT22;683;48.738;9.226;2022-07-06T15:12:48;32.90;38.40
1379;DHT22;683;48.738;9.226;2022-07-06T15:15:15;32.90;39.60
1379;DHT22;683;48.738;9.226;2022-07-06T15:17:43;32.70;39.80
1379;DHT22;683;48.738;9.226;2022-07-06T15:20:11;33.20;39.10
1379;DHT22;683;48.738;9.226;2022-07-06T15:22:40;32.50;39.30
1379;DHT22;683;48.738;9.226;2022-07-06T15:25:09;32.30;40.50
1379;DHT22;683;48.738;9.226;2022-07-06T15:27:36;32.90;38.80
1379;DHT22;683;48.738;9.226;2022-07-06T15:30:04;33.50;39.10
1379;DHT22;683;48.738;9.226;2022-07-06T15:32:32;33.90;37.70
1379;DHT22;683;48.738;9.226;2022-07-06T15:34:59;32.80;39.40
1379;DHT22;683;48.738;9.226;2022-07-06T15:37:27;32.70;38.90
1379;DHT22;683;48.738;9.226;2022-07-06T15:39:55;30.60;40.10
1379;DHT22;683;48.738;9.226;2022-07-06T15:42:23;29.30;43.20
1379;DHT22;683;48.738;9.226;2022-07-06T15:44:50;28.90;45.00
1379;DHT22;683;48.738;9.226;2022-07-06T15:47:19;29.60;44.60
1379;DHT22;683;48.738;9.226;2022-07-06T15:49:49;30.40;42.60
1379;DHT22;683;48.738;9.226;2022-07-06T15:52:16;29.50;42.60
1379;DHT22;683;48.738;9.226;2022-07-06T15:54:44;29.30;43.50
1379;DHT22;683;48.738;9.226;2022-07-06T15:57:12;29.50;43.70
1379;DHT22;683;48.738;9.226;2022-07-06T15:59:40;28.70;44.20
1379;DHT22;683;48.738;9.226;2022-07-06T16:02:07;28.90;45.30
1379;DHT22;683;48.738;9.226;2022-07-06T16:04:34;29.10;44.90
1379;DHT22;683;48.738;9.226;2022-07-06T16:07:02;28.40;44.70
1379;DHT22;683;48.738;9.226;2022-07-06T16:09:29;27.70;46.90
1379;DHT22;683;48.738;9.226;2022-07-06T16:11:57;27.40;47.30
1379;DHT22;683;48.738;9.226;2022-07-06T16:14:25;27.00;47.30
1379;DHT22;683;48.738;9.226;2022-07-06T16:16:53;26.50;48.10
1379;DHT22;683;48.738;9.226;2022-07-06T16:19:20;27.10;47.20
1379;DHT22;683;48.738;9.226;2022-07-06T16:21:47;26.40;48.30
1379;DHT22;683;48.738;9.226;2022-07-06T16:24:15;26.30;49.70
1379;DHT22;683;48.738;9.226;2022-07-06T16:26:42;25.40;49.10